<?xml version="1.0" encoding="utf-8"?>
<gpx xmlns:xsi="http://www.w3.org/2001/XMLSchema-instance" xmlns:xsd="http://www.w3.org/2001/XMLSchema" version="1.1" creator="Shapelink.com" xmlns="http://www.topografix.com/GPX/1/1" xmlns:gpxtpx="http://www.garmin.com/xmlschemas/TrackPointExtension/v1">
  <metadata>
    <name>Gåing 0.31 km, 2012-04-19</name>
    <desc></desc>
    <author><name>Mikael Blom</name></author> 
    <time>2012-04-19T19:20:24Z</time>
  </metadata>
  <trk>
    <name>Gåing 0.31 km, 2012-04-19</name>
    <trkseg>
      <trkpt lat="59.9788395" lon="17.7393042">
        <ele>30.4188</ele>
        <time>2012-04-19T19:20:24Z</time>
      </trkpt>
      <trkpt lat="59.9787551" lon="17.7393237">
        <ele>28.9769</ele>
        <time>2012-04-19T19:20:30Z</time>
      </trkpt>
      <trkpt lat="59.9787252" lon="17.7393159">
        <ele>28.9769</ele>
        <time>2012-04-19T19:20:32Z</time>
      </trkpt>
      <trkpt lat="59.9786341" lon="17.7393377">
        <ele>28.9769</ele>
        <time>2012-04-19T19:20:38Z</time>
      </trkpt>
      <trkpt lat="59.9785746" lon="17.7393522">
        <ele>28.9769</ele>
        <time>2012-04-19T19:20:42Z</time>
      </trkpt>
      <trkpt lat="59.9785301" lon="17.739336">
        <ele>29.4575</ele>
        <time>2012-04-19T19:20:45Z</time>
      </trkpt>
      <trkpt lat="59.9784692" lon="17.7393394">
        <ele>29.4575</ele>
        <time>2012-04-19T19:20:49Z</time>
      </trkpt>
      <trkpt lat="59.9783409" lon="17.7393471">
        <ele>30.8995</ele>
        <time>2012-04-19T19:20:56Z</time>
      </trkpt>
      <trkpt lat="59.9783045" lon="17.7393432">
        <ele>31.3801</ele>
        <time>2012-04-19T19:20:58Z</time>
      </trkpt>
      <trkpt lat="59.978177" lon="17.7393087">
        <ele>31.8607</ele>
        <time>2012-04-19T19:21:05Z</time>
      </trkpt>
      <trkpt lat="59.9780889" lon="17.7392718">
        <ele>31.8607</ele>
        <time>2012-04-19T19:21:09Z</time>
      </trkpt>
      <trkpt lat="59.9780092" lon="17.7392547">
        <ele>30.8995</ele>
        <time>2012-04-19T19:21:13Z</time>
      </trkpt>
      <trkpt lat="59.9779151" lon="17.7391989">
        <ele>29.4575</ele>
        <time>2012-04-19T19:21:19Z</time>
      </trkpt>
      <trkpt lat="59.9778503" lon="17.7391632">
        <ele>28.4962</ele>
        <time>2012-04-19T19:21:23Z</time>
      </trkpt>
      <trkpt lat="59.9777924" lon="17.7391316">
        <ele>28.4962</ele>
        <time>2012-04-19T19:21:26Z</time>
      </trkpt>
      <trkpt lat="59.9777367" lon="17.7391382">
        <ele>27.5349</ele>
        <time>2012-04-19T19:21:30Z</time>
      </trkpt>
      <trkpt lat="59.97771" lon="17.7391337">
        <ele>27.0543</ele>
        <time>2012-04-19T19:21:32Z</time>
      </trkpt>
      <trkpt lat="59.9775938" lon="17.7391234">
        <ele>26.5736</ele>
        <time>2012-04-19T19:21:40Z</time>
      </trkpt>
      <trkpt lat="59.9775192" lon="17.7391469">
        <ele>24.651</ele>
        <time>2012-04-19T19:21:45Z</time>
      </trkpt>
      <trkpt lat="59.9774267" lon="17.7391533">
        <ele>23.209</ele>
        <time>2012-04-19T19:21:51Z</time>
      </trkpt>
      <trkpt lat="59.9773642" lon="17.7391744">
        <ele>23.209</ele>
        <time>2012-04-19T19:21:56Z</time>
      </trkpt>
      <trkpt lat="59.9773075" lon="17.7391975">
        <ele>23.6896</ele>
        <time>2012-04-19T19:22:00Z</time>
      </trkpt>
      <trkpt lat="59.9771976" lon="17.7392469">
        <ele>26.0929</ele>
        <time>2012-04-19T19:22:06Z</time>
      </trkpt>
      <trkpt lat="59.9771215" lon="17.7392947">
        <ele>27.0543</ele>
        <time>2012-04-19T19:22:11Z</time>
      </trkpt>
      <trkpt lat="59.9770392" lon="17.7393098">
        <ele>27.5349</ele>
        <time>2012-04-19T19:22:16Z</time>
      </trkpt>
      <trkpt lat="59.9769919" lon="17.7393305">
        <ele>27.0543</ele>
        <time>2012-04-19T19:22:19Z</time>
      </trkpt>
      <trkpt lat="59.9769043" lon="17.7393533">
        <ele>26.5736</ele>
        <time>2012-04-19T19:22:24Z</time>
      </trkpt>
      <trkpt lat="59.9768381" lon="17.739359">
        <ele>27.0543</ele>
        <time>2012-04-19T19:22:28Z</time>
      </trkpt>
      <trkpt lat="59.9767449" lon="17.7394185">
        <ele>26.0929</ele>
        <time>2012-04-19T19:22:34Z</time>
      </trkpt>
      <trkpt lat="59.976646" lon="17.7394766">
        <ele>24.1703</ele>
        <time>2012-04-19T19:22:40Z</time>
      </trkpt>
      <trkpt lat="59.9765702" lon="17.7395491">
        <ele>23.209</ele>
        <time>2012-04-19T19:22:46Z</time>
      </trkpt>
      <trkpt lat="59.9765486" lon="17.7395739">
        <ele>22.7283</ele>
        <time>2012-04-19T19:22:48Z</time>
      </trkpt>
      <trkpt lat="59.9764735" lon="17.7396704">
        <ele>22.2476</ele>
        <time>2012-04-19T19:22:54Z</time>
      </trkpt>
      <trkpt lat="59.9764092" lon="17.739745">
        <ele>23.209</ele>
        <time>2012-04-19T19:22:59Z</time>
      </trkpt>
      <trkpt lat="59.9763518" lon="17.7398657">
        <ele>24.651</ele>
        <time>2012-04-19T19:23:05Z</time>
      </trkpt>
      <trkpt lat="59.976255" lon="17.7398765">
        <ele>25.6123</ele>
        <time>2012-04-19T19:23:11Z</time>
      </trkpt>
      <trkpt lat="59.9762039" lon="17.7398386">
        <ele>25.6123</ele>
        <time>2012-04-19T19:23:14Z</time>
      </trkpt>
    </trkseg>
  </trk>
</gpx>